sensor_id;sensor_type;location;lat;lon;timestamp;P1;durP1;ratioP1;P2;durP2;ratioP2
9906;SDS011;4992;51.628;6.664;2023-06-10T00:02:15;5.60;;;5.20;;
9906;SDS011;4992;51.628;6.664;2023-06-10T00:04:42;6.13;;;5.60;;
9906;SDS011;4992;51.628;6.664;2023-06-10T00:07:08;6.50;;;5.90;;
9906;SDS011;4992;51.628;6.664;2023-06-10T00:09:37;6.93;;;5.80;;
9906;SDS011;4992;51.628;6.664;2023-06-10T00:12:07;5.97;;;5.32;;
9906;SDS011;4992;51.628;6.664;2023-06-10T00:14:38;8.13;;;5.57;;
9906;SDS011;4992;51.628;6.664;2023-06-10T00:17:04;6.63;;;5.57;;
9906;SDS011;4992;51.628;6.664;2023-06-10T00:19:34;6.22;;;5.63;;
9906;SDS011;4992;51.628;6.664;2023-06-10T00:22:01;6.95;;;5.60;;
9906;SDS011;4992;51.628;6.664;2023-06-10T00:24:28;6.18;;;5.25;;
9906;SDS011;4992;51.628;6.664;2023-06-10T00:26:54;7.32;;;5.70;;
9906;SDS011;4992;51.628;6.664;2023-06-10T00:29:20;7.00;;;6.28;;
9906;SDS011;4992;51.628;6.664;2023-06-10T00:31:46;7.07;;;6.47;;
9906;SDS011;4992;51.628;6.664;2023-06-10T00:34:12;6.85;;;6.25;;
9906;SDS011;4992;51.628;6.664;2023-06-10T00:36:38;6.80;;;6.10;;
9906;SDS011;4992;51.628;6.664;2023-06-10T00:39:04;6.25;;;5.65;;
9906;SDS011;4992;51.628;6.664;2023-06-10T00:41:30;6.13;;;5.63;;
9906;SDS011;4992;51.628;6.664;2023-06-10T00:43:56;7.43;;;5.90;;
9906;SDS011;4992;51.628;6.664;2023-06-10T00:46:22;6.82;;;6.13;;
9906;SDS011;4992;51.628;6.664;2023-06-10T00:48:49;7.32;;;6.15;;
9906;SDS011;4992;51.628;6.664;2023-06-10T00:51:15;5.93;;;5.43;;
9906;SDS011;4992;51.628;6.664;2023-06-10T00:53:42;7.38;;;6.78;;
9906;SDS011;4992;51.628;6.664;2023-06-10T00:56:09;7.95;;;6.43;;
9906;SDS011;4992;51.628;6.664;2023-06-10T00:58:35;7.47;;;6.35;;
9906;SDS011;4992;51.628;6.664;2023-06-10T01:01:02;7.20;;;6.50;;
9906;SDS011;4992;51.628;6.664;2023-06-10T01:03:29;7.25;;;6.55;;
9906;SDS011;4992;51.628;6.664;2023-06-10T01:06:00;7.60;;;6.35;;
9906;SDS011;4992;51.628;6.664;2023-06-10T01:08:32;7.18;;;6.47;;
9906;SDS011;4992;51.628;6.664;2023-06-10T01:11:00;7.93;;;7.13;;
9906;SDS011;4992;51.628;6.664;2023-06-10T01:13:26;7.88;;;6.88;;
9906;SDS011;4992;51.628;6.664;2023-06-10T01:15:57;6.85;;;6.20;;
9906;SDS011;4992;51.628;6.664;2023-06-10T01:18:29;7.32;;;6.63;;
9906;SDS011;4992;51.628;6.664;2023-06-10T01:20:55;6.95;;;6.35;;
9906;SDS011;4992;51.628;6.664;2023-06-10T01:23:22;8.02;;;7.22;;
9906;SDS011;4992;51.628;6.664;2023-06-10T01:25:53;7.18;;;6.57;;
9906;SDS011;4992;51.628;6.664;2023-06-10T01:33:18;7.68;;;6.78;;
9906;SDS011;4992;51.628;6.664;2023-06-10T01:35:47;7.57;;;6.88;;
9906;SDS011;4992;51.628;6.664;2023-06-10T01:38:14;7.82;;;6.40;;
9906;SDS011;4992;51.628;6.664;2023-06-10T01:40:41;8.70;;;7.03;;
9906;SDS011;4992;51.628;6.664;2023-06-10T01:43:08;7.63;;;6.95;;
9906;SDS011;4992;51.628;6.664;2023-06-10T01:45:34;6.78;;;6.18;;
9906;SDS011;4992;51.628;6.664;2023-06-10T01:48:00;7.40;;;6.57;;
9906;SDS011;4992;51.628;6.664;2023-06-10T01:50:26;8.57;;;6.63;;
9906;SDS011;4992;51.628;6.664;2023-06-10T01:52:51;7.60;;;6.70;;
9906;SDS011;4992;51.628;6.664;2023-06-10T01:55:17;7.20;;;6.18;;
9906;SDS011;4992;51.628;6.664;2023-06-10T01:57:43;7.35;;;6.55;;
9906;SDS011;4992;51.628;6.664;2023-06-10T02:00:10;8.00;;;7.18;;
9906;SDS011;4992;51.628;6.664;2023-06-10T02:02:36;7.90;;;7.05;;
9906;SDS011;4992;51.628;6.664;2023-06-10T02:05:02;7.10;;;6.40;;
9906;SDS011;4992;51.628;6.664;2023-06-10T02:07:28;9.10;;;7.28;;
9906;SDS011;4992;51.628;6.664;2023-06-10T02:09:54;7.15;;;6.55;;
9906;SDS011;4992;51.628;6.664;2023-06-10T02:12:20;7.32;;;6.63;;
9906;SDS011;4992;51.628;6.664;2023-06-10T02:14:46;7.03;;;6.43;;
9906;SDS011;4992;51.628;6.664;2023-06-10T02:17:12;7.50;;;6.80;;
9906;SDS011;4992;51.628;6.664;2023-06-10T02:19:39;7.35;;;6.28;;
9906;SDS011;4992;51.628;6.664;2023-06-10T02:22:07;7.65;;;6.57;;
9906;SDS011;4992;51.628;6.664;2023-06-10T02:24:33;7.10;;;6.40;;
9906;SDS011;4992;51.628;6.664;2023-06-10T02:26:59;6.35;;;5.85;;
9906;SDS011;4992;51.628;6.664;2023-06-10T02:29:25;7.45;;;6.75;;
9906;SDS011;4992;51.628;6.664;2023-06-10T02:31:51;8.18;;;6.70;;
9906;SDS011;4992;51.628;6.664;2023-06-10T02:34:17;6.65;;;6.05;;
9906;SDS011;4992;51.628;6.664;2023-06-10T02:36:43;6.88;;;6.35;;
9906;SDS011;4992;51.628;6.664;2023-06-10T02:39:09;7.03;;;6.43;;
9906;SDS011;4992;51.628;6.664;2023-06-10T02:41:35;7.05;;;6.35;;
9906;SDS011;4992;51.628;6.664;2023-06-10T02:44:01;6.93;;;6.05;;
9906;SDS011;4992;51.628;6.664;2023-06-10T02:46:27;10.93;;;6.40;;
9906;SDS011;4992;51.628;6.664;2023-06-10T02:48:53;6.80;;;6.10;;
9906;SDS011;4992;51.628;6.664;2023-06-10T02:51:20;8.73;;;7.15;;
9906;SDS011;4992;51.628;6.664;2023-06-10T02:53:46;7.53;;;6.35;;
9906;SDS011;4992;51.628;6.664;2023-06-10T02:56:13;6.97;;;6.35;;
9906;SDS011;4992;51.628;6.664;2023-06-10T02:58:39;7.43;;;6.75;;
9906;SDS011;4992;51.628;6.664;2023-06-10T03:01:05;7.95;;;7.18;;
9906;SDS011;4992;51.628;6.664;2023-06-10T03:03:31;7.13;;;6.45;;
9906;SDS011;4992;51.628;6.664;2023-06-10T03:05:58;7.03;;;6.30;;
9906;SDS011;4992;51.628;6.664;2023-06-10T03:08:24;7.95;;;6.50;;
9906;SDS011;4992;51.628;6.664;2023-06-10T03:10:51;6.50;;;5.90;;
9906;SDS011;4992;51.628;6.664;2023-06-10T03:13:17;7.45;;;6.68;;
9906;SDS011;4992;51.628;6.664;2023-06-10T03:15:43;6.80;;;5.90;;
9906;SDS011;4992;51.628;6.664;2023-06-10T03:18:09;7.03;;;6.32;;
9906;SDS011;4992;51.628;6.664;2023-06-10T03:20:35;6.72;;;6.13;;
9906;SDS011;4992;51.628;6.664;2023-06-10T03:23:02;7.22;;;5.80;;
9906;SDS011;4992;51.628;6.664;2023-06-10T03:25:28;6.80;;;6.15;;
9906;SDS011;4992;51.628;6.664;2023-06-10T03:27:55;6.50;;;5.90;;
9906;SDS011;4992;51.628;6.664;2023-06-10T03:30:21;8.05;;;5.85;;
9906;SDS011;4992;51.628;6.664;2023-06-10T03:32:47;6.68;;;5.82;;
9906;SDS011;4992;51.628;6.664;2023-06-10T03:35:14;8.05;;;6.35;;
9906;SDS011;4992;51.628;6.664;2023-06-10T03:37:40;6.93;;;6.22;;
9906;SDS011;4992;51.628;6.664;2023-06-10T03:40:07;8.85;;;5.90;;
9906;SDS011;4992;51.628;6.664;2023-06-10T03:42:33;7.53;;;5.55;;
9906;SDS011;4992;51.628;6.664;2023-06-10T03:44:59;7.05;;;6.35;;
9906;SDS011;4992;51.628;6.664;2023-06-10T03:47:25;10.50;;;6.20;;
9906;SDS011;4992;51.628;6.664;2023-06-10T03:49:51;6.63;;;5.45;;
9906;SDS011;4992;51.628;6.664;2023-06-10T03:52:18;9.00;;;5.90;;
9906;SDS011;4992;51.628;6.664;2023-06-10T03:54:44;7.10;;;6.40;;
9906;SDS011;4992;51.628;6.664;2023-06-10T03:57:09;6.78;;;5.30;;
9906;SDS011;4992;51.628;6.664;2023-06-10T03:59:35;8.00;;;5.05;;
9906;SDS011;4992;51.628;6.664;2023-06-10T04:02:01;7.15;;;6.22;;
9906;SDS011;4992;51.628;6.664;2023-06-10T04:04:29;6.93;;;5.63;;
9906;SDS011;4992;51.628;6.664;2023-06-10T04:06:55;7.60;;;5.65;;
9906;SDS011;4992;51.628;6.664;2023-06-10T04:09:21;6.63;;;5.75;;
9906;SDS011;4992;51.628;6.664;2023-06-10T04:11:47;7.05;;;5.82;;
9906;SDS011;4992;51.628;6.664;2023-06-10T04:14:13;6.00;;;5.15;;
9906;SDS011;4992;51.628;6.664;2023-06-10T04:16:39;6.30;;;5.70;;
9906;SDS011;4992;51.628;6.664;2023-06-10T04:19:06;7.80;;;6.18;;
9906;SDS011;4992;51.628;6.664;2023-06-10T04:21:32;5.68;;;5.18;;
9906;SDS011;4992;51.628;6.664;2023-06-10T04:23:58;5.57;;;5.00;;
9906;SDS011;4992;51.628;6.664;2023-06-10T04:26:24;9.25;;;5.72;;
9906;SDS011;4992;51.628;6.664;2023-06-10T04:28:50;6.82;;;5.22;;
9906;SDS011;4992;51.628;6.664;2023-06-10T04:31:16;7.05;;;5.28;;
9906;SDS011;4992;51.628;6.664;2023-06-10T04:33:42;6.40;;;5.80;;
9906;SDS011;4992;51.628;6.664;2023-06-10T04:36:08;5.72;;;5.07;;
9906;SDS011;4992;51.628;6.664;2023-06-10T04:38:34;7.60;;;5.50;;
9906;SDS011;4992;51.628;6.664;2023-06-10T04:41:00;5.63;;;5.15;;
9906;SDS011;4992;51.628;6.664;2023-06-10T04:43:26;7.10;;;5.60;;
9906;SDS011;4992;51.628;6.664;2023-06-10T04:45:53;5.43;;;5.00;;
9906;SDS011;4992;51.628;6.664;2023-06-10T04:48:19;7.45;;;5.28;;
9906;SDS011;4992;51.628;6.664;2023-06-10T04:50:45;5.72;;;5.15;;
9906;SDS011;4992;51.628;6.664;2023-06-10T04:53:11;6.47;;;5.03;;
9906;SDS011;4992;51.628;6.664;2023-06-10T04:55:37;8.32;;;4.65;;
9906;SDS011;4992;51.628;6.664;2023-06-10T04:58:03;5.60;;;4.40;;
9906;SDS011;4992;51.628;6.664;2023-06-10T05:00:28;5.70;;;4.70;;
9906;SDS011;4992;51.628;6.664;2023-06-10T05:02:54;6.80;;;4.93;;
9906;SDS011;4992;51.628;6.664;2023-06-10T05:05:21;6.95;;;5.05;;
9906;SDS011;4992;51.628;6.664;2023-06-10T05:07:47;5.90;;;4.80;;
9906;SDS011;4992;51.628;6.664;2023-06-10T05:10:13;6.93;;;5.00;;
9906;SDS011;4992;51.628;6.664;2023-06-10T05:12:39;6.00;;;4.53;;
9906;SDS011;4992;51.628;6.664;2023-06-10T05:15:06;5.43;;;4.47;;
9906;SDS011;4992;51.628;6.664;2023-06-10T05:17:32;5.63;;;4.40;;
9906;SDS011;4992;51.628;6.664;2023-06-10T05:19:59;9.35;;;4.88;;
9906;SDS011;4992;51.628;6.664;2023-06-10T05:22:25;5.32;;;4.60;;
9906;SDS011;4992;51.628;6.664;2023-06-10T05:24:52;9.05;;;4.88;;
9906;SDS011;4992;51.628;6.664;2023-06-10T05:27:18;8.73;;;5.00;;
9906;SDS011;4992;51.628;6.664;2023-06-10T05:29:44;7.85;;;4.85;;
9906;SDS011;4992;51.628;6.664;2023-06-10T05:32:10;4.82;;;4.30;;
9906;SDS011;4992;51.628;6.664;2023-06-10T05:34:36;9.32;;;4.68;;
9906;SDS011;4992;51.628;6.664;2023-06-10T05:37:02;5.35;;;4.78;;
9906;SDS011;4992;51.628;6.664;2023-06-10T05:39:28;5.30;;;4.30;;
9906;SDS011;4992;51.628;6.664;2023-06-10T05:41:54;5.82;;;3.80;;
9906;SDS011;4992;51.628;6.664;2023-06-10T05:44:20;4.90;;;4.22;;
9906;SDS011;4992;51.628;6.664;2023-06-10T05:46:46;5.70;;;4.57;;
9906;SDS011;4992;51.628;6.664;2023-06-10T05:49:12;5.75;;;3.78;;
9906;SDS011;4992;51.628;6.664;2023-06-10T05:51:38;6.68;;;4.40;;
9906;SDS011;4992;51.628;6.664;2023-06-10T05:54:04;5.85;;;3.80;;
9906;SDS011;4992;51.628;6.664;2023-06-10T05:56:30;6.30;;;3.92;;
9906;SDS011;4992;51.628;6.664;2023-06-10T05:58:56;4.72;;;4.18;;
9906;SDS011;4992;51.628;6.664;2023-06-10T06:01:22;6.45;;;4.13;;
9906;SDS011;4992;51.628;6.664;2023-06-10T06:03:48;6.07;;;4.18;;
9906;SDS011;4992;51.628;6.664;2023-06-10T06:06:14;5.53;;;3.72;;
9906;SDS011;4992;51.628;6.664;2023-06-10T06:08:40;5.95;;;4.30;;
9906;SDS011;4992;51.628;6.664;2023-06-10T06:11:05;5.03;;;4.15;;
9906;SDS011;4992;51.628;6.664;2023-06-10T06:13:31;5.70;;;4.40;;
9906;SDS011;4992;51.628;6.664;2023-06-10T06:15:57;7.05;;;4.07;;
9906;SDS011;4992;51.628;6.664;2023-06-10T06:18:23;4.82;;;4.28;;
9906;SDS011;4992;51.628;6.664;2023-06-10T06:20:49;5.40;;;4.35;;
9906;SDS011;4992;51.628;6.664;2023-06-10T06:23:15;6.63;;;4.13;;
9906;SDS011;4992;51.628;6.664;2023-06-10T06:25:41;5.63;;;4.20;;
9906;SDS011;4992;51.628;6.664;2023-06-10T06:28:07;6.45;;;3.88;;
9906;SDS011;4992;51.628;6.664;2023-06-10T06:30:34;4.30;;;3.78;;
9906;SDS011;4992;51.628;6.664;2023-06-10T06:33:00;4.90;;;3.83;;
9906;SDS011;4992;51.628;6.664;2023-06-10T06:35:26;4.20;;;3.80;;
9906;SDS011;4992;51.628;6.664;2023-06-10T06:37:52;6.50;;;4.07;;
9906;SDS011;4992;51.628;6.664;2023-06-10T06:40:18;5.93;;;4.32;;
9906;SDS011;4992;51.628;6.664;2023-06-10T06:42:44;4.63;;;3.80;;
9906;SDS011;4992;51.628;6.664;2023-06-10T06:45:10;6.70;;;4.00;;
9906;SDS011;4992;51.628;6.664;2023-06-10T06:47:36;4.20;;;3.72;;
9906;SDS011;4992;51.628;6.664;2023-06-10T06:50:02;5.90;;;4.22;;
9906;SDS011;4992;51.628;6.664;2023-06-10T06:52:28;6.55;;;3.88;;
9906;SDS011;4992;51.628;6.664;2023-06-10T06:54:54;4.22;;;3.80;;
9906;SDS011;4992;51.628;6.664;2023-06-10T06:57:20;5.00;;;3.65;;
9906;SDS011;4992;51.628;6.664;2023-06-10T06:59:48;4.72;;;3.97;;
9906;SDS011;4992;51.628;6.664;2023-06-10T07:02:14;4.95;;;3.70;;
9906;SDS011;4992;51.628;6.664;2023-06-10T07:04:39;4.20;;;3.78;;
9906;SDS011;4992;51.628;6.664;2023-06-10T07:07:07;7.15;;;3.85;;
9906;SDS011;4992;51.628;6.664;2023-06-10T07:09:33;6.63;;;4.72;;
9906;SDS011;4992;51.628;6.664;2023-06-10T07:11:59;6.85;;;5.30;;
9906;SDS011;4992;51.628;6.664;2023-06-10T07:14:25;5.05;;;3.80;;
9906;SDS011;4992;51.628;6.664;2023-06-10T07:16:51;6.07;;;3.72;;
9906;SDS011;4992;51.628;6.664;2023-06-10T07:19:17;6.30;;;3.80;;
9906;SDS011;4992;51.628;6.664;2023-06-10T07:21:43;4.53;;;3.70;;
9906;SDS011;4992;51.628;6.664;2023-06-10T07:24:09;6.45;;;4.03;;
9906;SDS011;4992;51.628;6.664;2023-06-10T07:26:35;7.43;;;3.67;;
9906;SDS011;4992;51.628;6.664;2023-06-10T07:29:01;5.43;;;4.03;;
9906;SDS011;4992;51.628;6.664;2023-06-10T07:31:27;5.07;;;4.10;;
9906;SDS011;4992;51.628;6.664;2023-06-10T07:33:53;6.43;;;3.72;;
9906;SDS011;4992;51.628;6.664;2023-06-10T07:36:19;5.97;;;3.42;;
9906;SDS011;4992;51.628;6.664;2023-06-10T07:38:45;5.65;;;3.70;;
9906;SDS011;4992;51.628;6.664;2023-06-10T07:41:11;4.68;;;3.00;;
9906;SDS011;4992;51.628;6.664;2023-06-10T07:43:37;3.75;;;3.30;;
9906;SDS011;4992;51.628;6.664;2023-06-10T07:46:03;5.63;;;3.22;;
9906;SDS011;4992;51.628;6.664;2023-06-10T07:48:30;7.15;;;3.67;;
9906;SDS011;4992;51.628;6.664;2023-06-10T07:50:56;5.75;;;3.85;;
9906;SDS011;4992;51.628;6.664;2023-06-10T07:53:22;5.68;;;3.78;;
9906;SDS011;4992;51.628;6.664;2023-06-10T07:55:48;4.85;;;3.60;;
9906;SDS011;4992;51.628;6.664;2023-06-10T07:58:14;3.78;;;3.50;;
9906;SDS011;4992;51.628;6.664;2023-06-10T08:00:40;5.07;;;3.30;;
9906;SDS011;4992;51.628;6.664;2023-06-10T08:03:07;6.60;;;3.80;;
9906;SDS011;4992;51.628;6.664;2023-06-10T08:05:33;3.97;;;3.47;;
9906;SDS011;4992;51.628;6.664;2023-06-10T08:07:58;6.22;;;3.20;;
9906;SDS011;4992;51.628;6.664;2023-06-10T08:10:24;6.22;;;4.07;;
9906;SDS011;4992;51.628;6.664;2023-06-10T08:12:50;8.18;;;3.38;;
9906;SDS011;4992;51.628;6.664;2023-06-10T08:15:16;7.85;;;4.15;;
9906;SDS011;4992;51.628;6.664;2023-06-10T08:17:42;5.50;;;3.85;;
9906;SDS011;4992;51.628;6.664;2023-06-10T08:20:09;6.75;;;3.60;;
9906;SDS011;4992;51.628;6.664;2023-06-10T08:22:35;4.45;;;3.60;;
9906;SDS011;4992;51.628;6.664;2023-06-10T08:25:01;4.90;;;3.17;;
9906;SDS011;4992;51.628;6.664;2023-06-10T08:27:27;3.97;;;3.42;;
9906;SDS011;4992;51.628;6.664;2023-06-10T08:29:53;6.22;;;3.92;;
9906;SDS011;4992;51.628;6.664;2023-06-10T08:32:19;5.88;;;3.70;;
9906;SDS011;4992;51.628;6.664;2023-06-10T08:34:45;4.32;;;3.30;;
9906;SDS011;4992;51.628;6.664;2023-06-10T08:37:11;5.68;;;3.50;;
9906;SDS011;4992;51.628;6.664;2023-06-10T08:39:37;4.00;;;3.60;;
9906;SDS011;4992;51.628;6.664;2023-06-10T08:44:29;3.40;;;2.97;;
9906;SDS011;4992;51.628;6.664;2023-06-10T08:46:55;5.78;;;3.65;;
9906;SDS011;4992;51.628;6.664;2023-06-10T08:49:21;4.05;;;3.65;;
9906;SDS011;4992;51.628;6.664;2023-06-10T08:51:49;4.72;;;3.47;;
9906;SDS011;4992;51.628;6.664;2023-06-10T08:54:23;4.38;;;3.70;;
9906;SDS011;4992;51.628;6.664;2023-06-10T08:56:50;4.40;;;3.88;;
9906;SDS011;4992;51.628;6.664;2023-06-10T08:59:16;4.65;;;4.07;;
9906;SDS011;4992;51.628;6.664;2023-06-10T09:01:43;4.97;;;3.60;;
9906;SDS011;4992;51.628;6.664;2023-06-10T09:04:10;3.35;;;2.85;;
9906;SDS011;4992;51.628;6.664;2023-06-10T09:06:36;4.07;;;3.65;;
9906;SDS011;4992;51.628;6.664;2023-06-10T09:09:03;6.78;;;3.70;;
9906;SDS011;4992;51.628;6.664;2023-06-10T09:11:31;4.47;;;3.38;;
9906;SDS011;4992;51.628;6.664;2023-06-10T09:13:57;4.13;;;3.72;;
9906;SDS011;4992;51.628;6.664;2023-06-10T09:16:26;6.90;;;3.20;;
9906;SDS011;4992;51.628;6.664;2023-06-10T09:18:52;4.00;;;3.33;;
9906;SDS011;4992;51.628;6.664;2023-06-10T09:21:22;4.60;;;3.45;;
9906;SDS011;4992;51.628;6.664;2023-06-10T09:23:48;4.47;;;3.20;;
9906;SDS011;4992;51.628;6.664;2023-06-10T09:26:14;4.07;;;3.78;;
9906;SDS011;4992;51.628;6.664;2023-06-10T09:28:50;5.10;;;3.38;;
9906;SDS011;4992;51.628;6.664;2023-06-10T09:31:16;4.03;;;3.42;;
9906;SDS011;4992;51.628;6.664;2023-06-10T09:33:43;5.03;;;3.78;;
9906;SDS011;4992;51.628;6.664;2023-06-10T09:36:10;5.07;;;3.40;;
9906;SDS011;4992;51.628;6.664;2023-06-10T09:38:36;5.35;;;3.50;;
9906;SDS011;4992;51.628;6.664;2023-06-10T09:41:02;3.63;;;3.33;;
9906;SDS011;4992;51.628;6.664;2023-06-10T09:43:42;4.40;;;3.42;;
9906;SDS011;4992;51.628;6.664;2023-06-10T09:46:15;4.13;;;3.72;;
9906;SDS011;4992;51.628;6.664;2023-06-10T09:48:42;6.30;;;4.45;;
9906;SDS011;4992;51.628;6.664;2023-06-10T09:51:09;4.97;;;3.65;;
9906;SDS011;4992;51.628;6.664;2023-06-10T09:53:35;4.32;;;3.40;;
9906;SDS011;4992;51.628;6.664;2023-06-10T09:56:01;7.22;;;4.30;;
9906;SDS011;4992;51.628;6.664;2023-06-10T09:58:39;4.78;;;4.35;;
9906;SDS011;4992;51.628;6.664;2023-06-10T10:01:08;5.18;;;3.75;;
9906;SDS011;4992;51.628;6.664;2023-06-10T10:03:42;6.32;;;3.75;;
9906;SDS011;4992;51.628;6.664;2023-06-10T10:06:09;5.93;;;3.47;;
9906;SDS011;4992;51.628;6.664;2023-06-10T10:08:35;3.50;;;3.20;;
9906;SDS011;4992;51.628;6.664;2023-06-10T10:11:01;5.47;;;3.72;;
9906;SDS011;4992;51.628;6.664;2023-06-10T10:13:27;4.32;;;3.92;;
9906;SDS011;4992;51.628;6.664;2023-06-10T10:15:54;9.82;;;4.18;;
9906;SDS011;4992;51.628;6.664;2023-06-10T10:18:20;4.45;;;4.03;;
9906;SDS011;4992;51.628;6.664;2023-06-10T10:20:53;5.63;;;3.97;;
9906;SDS011;4992;51.628;6.664;2023-06-10T10:24:03;3.92;;;3.58;;
9906;SDS011;4992;51.628;6.664;2023-06-10T10:26:09;5.95;;;3.78;;
9906;SDS011;4992;51.628;6.664;2023-06-10T10:28:45;5.13;;;3.63;;
9906;SDS011;4992;51.628;6.664;2023-06-10T10:31:15;5.25;;;3.90;;
9906;SDS011;4992;51.628;6.664;2023-06-10T10:33:55;4.72;;;3.30;;
9906;SDS011;4992;51.628;6.664;2023-06-10T10:38:49;7.40;;;3.67;;
9906;SDS011;4992;51.628;6.664;2023-06-10T10:41:15;4.20;;;3.83;;
9906;SDS011;4992;51.628;6.664;2023-06-10T10:43:43;4.53;;;3.78;;
9906;SDS011;4992;51.628;6.664;2023-06-10T10:46:13;4.50;;;4.00;;
9906;SDS011;4992;51.628;6.664;2023-06-10T10:48:39;4.43;;;4.03;;
9906;SDS011;4992;51.628;6.664;2023-06-10T10:51:09;4.40;;;3.70;;
9906;SDS011;4992;51.628;6.664;2023-06-10T10:53:38;5.10;;;3.78;;
9906;SDS011;4992;51.628;6.664;2023-06-10T10:56:08;5.03;;;3.80;;
9906;SDS011;4992;51.628;6.664;2023-06-10T10:58:34;4.00;;;3.65;;
9906;SDS011;4992;51.628;6.664;2023-06-10T11:01:07;5.00;;;3.72;;
9906;SDS011;4992;51.628;6.664;2023-06-10T11:03:35;4.25;;;3.38;;
9906;SDS011;4992;51.628;6.664;2023-06-10T11:06:11;5.63;;;3.78;;
9906;SDS011;4992;51.628;6.664;2023-06-10T11:11:25;4.72;;;3.75;;
9906;SDS011;4992;51.628;6.664;2023-06-10T11:14:05;4.65;;;3.83;;
9906;SDS011;4992;51.628;6.664;2023-06-10T11:16:39;4.82;;;3.88;;
9906;SDS011;4992;51.628;6.664;2023-06-10T11:19:05;4.53;;;3.60;;
9906;SDS011;4992;51.628;6.664;2023-06-10T11:21:31;4.40;;;3.40;;
9906;SDS011;4992;51.628;6.664;2023-06-10T11:23:58;3.95;;;3.30;;
9906;SDS011;4992;51.628;6.664;2023-06-10T11:26:29;7.00;;;3.80;;
9906;SDS011;4992;51.628;6.664;2023-06-10T11:34:01;6.18;;;4.15;;
9906;SDS011;4992;51.628;6.664;2023-06-10T11:36:28;5.05;;;3.85;;
9906;SDS011;4992;51.628;6.664;2023-06-10T11:38:58;5.93;;;3.55;;
9906;SDS011;4992;51.628;6.664;2023-06-10T11:41:24;4.05;;;3.67;;
9906;SDS011;4992;51.628;6.664;2023-06-10T11:43:51;4.03;;;3.58;;
9906;SDS011;4992;51.628;6.664;2023-06-10T11:46:17;4.35;;;3.92;;
9906;SDS011;4992;51.628;6.664;2023-06-10T11:48:53;6.90;;;3.90;;
9906;SDS011;4992;51.628;6.664;2023-06-10T11:51:19;4.30;;;3.90;;
9906;SDS011;4992;51.628;6.664;2023-06-10T11:53:49;4.40;;;4.00;;
9906;SDS011;4992;51.628;6.664;2023-06-10T11:56:22;7.05;;;3.42;;
9906;SDS011;4992;51.628;6.664;2023-06-10T11:58:58;4.03;;;3.70;;
9906;SDS011;4992;51.628;6.664;2023-06-10T12:01:26;3.67;;;3.30;;
9906;SDS011;4992;51.628;6.664;2023-06-10T12:04:02;3.67;;;3.38;;
9906;SDS011;4992;51.628;6.664;2023-06-10T12:06:38;3.50;;;3.20;;
9906;SDS011;4992;51.628;6.664;2023-06-10T12:09:05;4.47;;;3.35;;
9906;SDS011;4992;51.628;6.664;2023-06-10T12:11:31;3.60;;;3.30;;
9906;SDS011;4992;51.628;6.664;2023-06-10T12:13:57;4.18;;;3.50;;
9906;SDS011;4992;51.628;6.664;2023-06-10T12:16:23;4.20;;;3.70;;
9906;SDS011;4992;51.628;6.664;2023-06-10T12:18:49;4.78;;;3.58;;
9906;SDS011;4992;51.628;6.664;2023-06-10T12:21:24;3.67;;;3.33;;
9906;SDS011;4992;51.628;6.664;2023-06-10T12:24:03;15.88;;;14.13;;
9906;SDS011;4992;51.628;6.664;2023-06-10T12:26:34;4.15;;;3.85;;
9906;SDS011;4992;51.628;6.664;2023-06-10T12:29:01;4.30;;;3.80;;
9906;SDS011;4992;51.628;6.664;2023-06-10T12:31:26;3.47;;;3.17;;
9906;SDS011;4992;51.628;6.664;2023-06-10T12:34:07;4.53;;;3.38;;
9906;SDS011;4992;51.628;6.664;2023-06-10T12:36:33;3.63;;;3.33;;
9906;SDS011;4992;51.628;6.664;2023-06-10T12:39:03;3.95;;;3.60;;
9906;SDS011;4992;51.628;6.664;2023-06-10T12:41:29;4.53;;;3.75;;
9906;SDS011;4992;51.628;6.664;2023-06-10T12:43:57;3.97;;;3.40;;
9906;SDS011;4992;51.628;6.664;2023-06-10T12:46:23;4.82;;;3.53;;
9906;SDS011;4992;51.628;6.664;2023-06-10T12:48:49;7.55;;;3.70;;
9906;SDS011;4992;51.628;6.664;2023-06-10T12:51:19;6.10;;;3.80;;
9906;SDS011;4992;51.628;6.664;2023-06-10T12:53:45;4.05;;;3.60;;
9906;SDS011;4992;51.628;6.664;2023-06-10T12:56:11;6.15;;;3.97;;
9906;SDS011;4992;51.628;6.664;2023-06-10T12:58:37;3.95;;;3.65;;
9906;SDS011;4992;51.628;6.664;2023-06-10T13:01:03;4.22;;;3.65;;
9906;SDS011;4992;51.628;6.664;2023-06-10T13:03:30;4.28;;;3.88;;
9906;SDS011;4992;51.628;6.664;2023-06-10T13:05:55;4.68;;;3.58;;
9906;SDS011;4992;51.628;6.664;2023-06-10T13:08:21;4.35;;;3.55;;
9906;SDS011;4992;51.628;6.664;2023-06-10T13:10:47;4.30;;;3.65;;
9906;SDS011;4992;51.628;6.664;2023-06-10T13:13:14;4.65;;;3.72;;
9906;SDS011;4992;51.628;6.664;2023-06-10T13:15:40;3.53;;;3.17;;
9906;SDS011;4992;51.628;6.664;2023-06-10T13:18:05;4.03;;;3.63;;
9906;SDS011;4992;51.628;6.664;2023-06-10T13:20:31;5.80;;;3.70;;
9906;SDS011;4992;51.628;6.664;2023-06-10T13:22:57;4.50;;;3.60;;
9906;SDS011;4992;51.628;6.664;2023-06-10T13:25:23;4.63;;;3.22;;
9906;SDS011;4992;51.628;6.664;2023-06-10T13:27:49;3.80;;;3.50;;
9906;SDS011;4992;51.628;6.664;2023-06-10T13:30:15;3.90;;;3.20;;
9906;SDS011;4992;51.628;6.664;2023-06-10T13:32:41;5.00;;;3.75;;
9906;SDS011;4992;51.628;6.664;2023-06-10T13:35:07;7.15;;;4.00;;
9906;SDS011;4992;51.628;6.664;2023-06-10T13:37:33;4.13;;;3.67;;
9906;SDS011;4992;51.628;6.664;2023-06-10T13:40:00;3.85;;;3.38;;
9906;SDS011;4992;51.628;6.664;2023-06-10T13:42:26;5.18;;;3.50;;
9906;SDS011;4992;51.628;6.664;2023-06-10T13:44:54;4.30;;;3.70;;
9906;SDS011;4992;51.628;6.664;2023-06-10T13:47:19;3.67;;;2.97;;
9906;SDS011;4992;51.628;6.664;2023-06-10T13:49:45;4.10;;;3.67;;
9906;SDS011;4992;51.628;6.664;2023-06-10T13:52:11;3.90;;;3.33;;
9906;SDS011;4992;51.628;6.664;2023-06-10T13:54:37;3.70;;;3.40;;
9906;SDS011;4992;51.628;6.664;2023-06-10T13:57:03;4.40;;;3.40;;
9906;SDS011;4992;51.628;6.664;2023-06-10T13:59:29;4.63;;;4.20;;
9906;SDS011;4992;51.628;6.664;2023-06-10T14:01:55;4.30;;;3.60;;
9906;SDS011;4992;51.628;6.664;2023-06-10T14:04:21;3.60;;;3.30;;
9906;SDS011;4992;51.628;6.664;2023-06-10T14:06:48;4.63;;;3.58;;
9906;SDS011;4992;51.628;6.664;2023-06-10T14:09:14;4.85;;;3.78;;
9906;SDS011;4992;51.628;6.664;2023-06-10T14:11:41;4.93;;;3.50;;
9906;SDS011;4992;51.628;6.664;2023-06-10T14:14:07;5.35;;;3.97;;
9906;SDS011;4992;51.628;6.664;2023-06-10T14:16:34;4.10;;;3.50;;
9906;SDS011;4992;51.628;6.664;2023-06-10T14:19:00;4.13;;;3.63;;
9906;SDS011;4992;51.628;6.664;2023-06-10T14:21:26;4.97;;;3.83;;
9906;SDS011;4992;51.628;6.664;2023-06-10T14:23:51;5.05;;;4.45;;
9906;SDS011;4992;51.628;6.664;2023-06-10T14:26:18;6.50;;;4.55;;
9906;SDS011;4992;51.628;6.664;2023-06-10T14:28:46;5.88;;;4.07;;
9906;SDS011;4992;51.628;6.664;2023-06-10T14:31:12;5.45;;;4.90;;
9906;SDS011;4992;51.628;6.664;2023-06-10T14:33:38;6.65;;;4.05;;
9906;SDS011;4992;51.628;6.664;2023-06-10T14:36:04;5.97;;;3.85;;
9906;SDS011;4992;51.628;6.664;2023-06-10T14:38:30;5.47;;;4.00;;
9906;SDS011;4992;51.628;6.664;2023-06-10T14:40:56;4.30;;;4.00;;
9906;SDS011;4992;51.628;6.664;2023-06-10T14:43:23;4.15;;;3.75;;
9906;SDS011;4992;51.628;6.664;2023-06-10T14:45:49;5.80;;;3.80;;
9906;SDS011;4992;51.628;6.664;2023-06-10T14:48:16;6.95;;;4.15;;
9906;SDS011;4992;51.628;6.664;2023-06-10T14:50:42;4.75;;;3.67;;
9906;SDS011;4992;51.628;6.664;2023-06-10T14:53:10;4.38;;;3.97;;
9906;SDS011;4992;51.628;6.664;2023-06-10T14:55:36;4.32;;;3.55;;
9906;SDS011;4992;51.628;6.664;2023-06-10T14:58:02;5.53;;;3.42;;
9906;SDS011;4992;51.628;6.664;2023-06-10T15:00:28;4.32;;;3.60;;
9906;SDS011;4992;51.628;6.664;2023-06-10T15:02:53;6.95;;;4.00;;
9906;SDS011;4992;51.628;6.664;2023-06-10T15:05:22;6.50;;;4.32;;
9906;SDS011;4992;51.628;6.664;2023-06-10T15:07:48;5.72;;;4.60;;
9906;SDS011;4992;51.628;6.664;2023-06-10T15:10:14;6.15;;;3.92;;
9906;SDS011;4992;51.628;6.664;2023-06-10T15:12:41;5.18;;;4.03;;
9906;SDS011;4992;51.628;6.664;2023-06-10T15:15:07;4.20;;;3.80;;
9906;SDS011;4992;51.628;6.664;2023-06-10T15:17:33;3.90;;;3.50;;
9906;SDS011;4992;51.628;6.664;2023-06-10T15:19:59;4.43;;;3.80;;
9906;SDS011;4992;51.628;6.664;2023-06-10T15:22:25;6.80;;;3.95;;
9906;SDS011;4992;51.628;6.664;2023-06-10T15:24:51;4.70;;;4.30;;
9906;SDS011;4992;51.628;6.664;2023-06-10T15:27:17;6.22;;;4.15;;
9906;SDS011;4992;51.628;6.664;2023-06-10T15:29:42;5.68;;;3.80;;
9906;SDS011;4992;51.628;6.664;2023-06-10T15:32:08;5.18;;;3.70;;